Time;durP1;ratioP1;P1;durP2;ratioP2;P2;SDS_P1;SDS_P2;PMS_P1;PMS_P2;Temp;Humidity;BMP_temperature;BMP_pressure;BME280_temperature;BME280_humidity;BME280_pressure;Samples;Min_cycle;Max_cycle;Signal;HPM_P1;HPM_P2
2022/06/23 00:00:19;;;;;;;;;;;16.30;99.90;;;;;;5083308;28;19958;-76
2022/06/23 00:02:45;;;;;;;;;;;16.30;99.90;;;;;;5077997;28;20392;-76
2022/06/23 00:05:13;;;;;;;;;;;16.30;99.90;;;;;;5081609;28;19912;-75
2022/06/23 00:07:42;;;;;;;;;;;16.30;99.90;;;;;;5083142;28;19919;-75
2022/06/23 00:10:16;;;;;;;;;;;16.30;99.90;;;;;;5082584;28;19912;-76
2022/06/23 00:12:43;;;;;;;;;;;16.20;99.90;;;;;;5080407;28;19923;-75
2022/06/23 00:15:09;;;;;;;;;;;16.20;99.90;;;;;;5080795;28;19920;-75
2022/06/23 00:17:45;;;;;;;;;;;16.10;99.90;;;;;;5085772;28;20215;-75
2022/06/23 00:20:28;;;;;;;;;;;16.10;99.90;;;;;;5089251;28;19927;-75
2022/06/23 00:22:55;;;;;;;;;;;16.00;99.90;;;;;;5077818;28;20002;-75
2022/06/23 00:25:33;;;;;;;;;;;16.00;99.90;;;;;;5079137;28;19912;-75
2022/06/23 00:27:59;;;;;;;;;;;16.00;99.90;;;;;;5078035;28;19951;-75
2022/06/23 00:30:45;;;;;;;;;;;16.00;99.90;;;;;;5074513;28;19912;-75
2022/06/23 00:33:16;;;;;;;;;;;16.00;99.90;;;;;;5072495;28;19919;-75
2022/06/23 00:35:42;;;;;;;;;;;15.90;99.90;;;;;;5075440;28;19981;-76
2022/06/23 00:38:23;;;;;;;;;;;15.90;99.90;;;;;;5065797;28;19928;-75
2022/06/23 00:40:49;;;;;;;;;;;15.90;99.90;;;;;;5075595;28;19942;-76
2022/06/23 00:43:17;;;;;;;;;;;15.80;99.90;;;;;;5082093;28;19913;-75
2022/06/23 00:45:52;;;;;;;;;;;15.80;99.90;;;;;;5079380;28;19920;-75
2022/06/23 00:48:17;;;;;;;;;;;15.70;99.90;;;;;;5079847;28;19917;-76
2022/06/23 00:50:46;;;;;;;;;;;15.70;99.90;;;;;;5064172;28;19916;-75
2022/06/23 00:53:11;;;;;;;;;;;15.70;99.90;;;;;;5085554;28;19935;-75
2022/06/23 00:55:46;;;;;;;;;;;15.70;99.90;;;;;;5071288;28;20299;-75
2022/06/23 00:58:25;;;;;;;;;;;15.70;99.90;;;;;;5073691;28;20281;-75
2022/06/23 01:00:52;;;;;;;;;;;15.70;99.90;;;;;;5064567;28;20002;-76
2022/06/23 01:03:27;;;;;;;;;;;15.70;99.90;;;;;;5060006;28;19920;-76
2022/06/23 01:05:58;;;;;;;;;;;15.70;99.90;;;;;;5075176;28;20296;-75
2022/06/23 01:08:35;;;;;;;;;;;15.70;99.90;;;;;;5077981;28;19924;-75
2022/06/23 01:11:26;;;;;;;;;;;15.70;99.90;;;;;;5075427;28;20396;-75
2022/06/23 01:13:55;;;;;;;;;;;15.70;99.90;;;;;;5079483;28;20379;-76
2022/06/23 01:16:33;;;;;;;;;;;15.70;99.90;;;;;;5072115;28;20018;-75
2022/06/23 01:18:58;;;;;;;;;;;15.60;99.90;;;;;;5079305;28;19912;-75
2022/06/23 01:21:47;;;;;;;;;;;15.60;99.90;;;;;;5091303;28;19923;-75
2022/06/23 01:24:39;;;;;;;;;;;15.60;99.90;;;;;;5075295;28;19916;-76
2022/06/23 01:27:11;;;;;;;;;;;15.60;99.90;;;;;;5080948;28;19935;-75
2022/06/23 01:29:36;;;;;;;;;;;15.60;99.90;;;;;;5088924;28;19959;-75
2022/06/23 01:32:22;;;;;;;;;;;15.40;99.90;;;;;;5076602;28;19951;-75
2022/06/23 01:34:54;;;;;;;;;;;15.40;99.90;;;;;;5070182;28;19961;-75
2022/06/23 01:37:26;;;;;;;;;;;15.50;99.90;;;;;;5077518;28;19917;-75
2022/06/23 01:39:54;;;;;;;;;;;15.50;99.90;;;;;;5075595;28;19966;-75
2022/06/23 01:42:32;;;;;;;;;;;15.40;99.90;;;;;;5077266;28;19958;-74
2022/06/23 01:45:01;;;;;;;;;;;15.40;99.90;;;;;;5084821;28;19921;-75
2022/06/23 01:47:27;;;;;;;;;;;15.40;99.90;;;;;;5086209;28;19916;-75
2022/06/23 01:49:54;;;;;;;;;;;15.40;99.90;;;;;;5065513;28;20011;-75
2022/06/23 01:52:21;;;;;;;;;;;15.30;99.90;;;;;;5073371;28;19912;-75
2022/06/23 01:54:47;;;;;;;;;;;15.20;99.90;;;;;;5084116;28;19965;-75
2022/06/23 01:57:38;;;;;;;;;;;15.20;99.90;;;;;;5082416;28;19955;-75
2022/06/23 02:00:09;;;;;;;;;;;15.20;99.90;;;;;;5075244;28;19920;-75
2022/06/23 02:02:47;;;;;;;;;;;15.10;99.90;;;;;;5074027;28;20218;-75
2022/06/23 02:05:39;;;;;;;;;;;15.00;99.90;;;;;;5086015;28;19969;-75
2022/06/23 02:08:05;;;;;;;;;;;15.00;99.90;;;;;;5067764;28;20303;-75
2022/06/23 02:10:33;;;;;;;;;;;14.80;99.90;;;;;;5069566;28;19920;-75
2022/06/23 02:13:07;;;;;;;;;;;14.80;99.90;;;;;;5081165;28;20353;-75
2022/06/23 02:15:34;;;;;;;;;;;14.80;99.90;;;;;;5077848;28;19968;-75
2022/06/23 02:18:21;;;;;;;;;;;14.70;99.90;;;;;;5057118;28;19940;-75
2022/06/23 02:21:05;;;;;;;;;;;14.70;99.90;;;;;;5080874;28;19966;-75
2022/06/23 02:23:30;;;;;;;;;;;14.60;99.90;;;;;;5091563;28;19912;-76
2022/06/23 02:26:00;;;;;;;;;;;14.60;99.90;;;;;;5081947;28;19926;-75
2022/06/23 02:28:37;;;;;;;;;;;14.60;99.90;;;;;;5074571;28;19952;-75
2022/06/23 02:31:06;;;;;;;;;;;14.60;99.90;;;;;;5085566;28;19989;-75
2022/06/23 02:33:34;;;;;;;;;;;14.60;99.90;;;;;;5067212;28;19912;-75
2022/06/23 02:36:24;;;;;;;;;;;14.60;99.90;;;;;;5078457;28;20303;-75
2022/06/23 02:38:51;;;;;;;;;;;14.60;99.90;;;;;;5064709;28;19956;-76
2022/06/23 02:41:35;;;;;;;;;;;14.50;99.90;;;;;;5089669;28;20251;-75
2022/06/23 02:44:10;;;;;;;;;;;14.50;99.90;;;;;;5088385;28;19912;-75
2022/06/23 02:46:51;;;;;;;;;;;14.50;99.90;;;;;;5086426;28;19919;-76
2022/06/23 02:49:16;;;;;;;;;;;14.40;99.90;;;;;;5085796;28;19924;-75
2022/06/23 02:51:54;;;;;;;;;;;14.30;99.90;;;;;;5077952;28;19920;-75
2022/06/23 02:54:38;;;;;;;;;;;14.30;99.90;;;;;;5097064;28;20314;-75
2022/06/23 02:57:10;;;;;;;;;;;14.40;99.90;;;;;;5083929;28;19934;-76
2022/06/23 02:59:42;;;;;;;;;;;14.30;99.90;;;;;;5087119;28;20002;-75
2022/06/23 03:02:14;;;;;;;;;;;14.40;99.90;;;;;;5081106;28;20265;-75
2022/06/23 03:04:44;;;;;;;;;;;14.30;99.90;;;;;;5094114;28;19919;-75
2022/06/23 03:07:13;;;;;;;;;;;14.20;99.90;;;;;;5078641;28;19964;-75
2022/06/23 03:09:41;;;;;;;;;;;14.20;99.90;;;;;;5073580;28;20019;-75
2022/06/23 03:12:12;;;;;;;;;;;14.20;99.90;;;;;;5084234;28;19920;-76
2022/06/23 03:15:01;;;;;;;;;;;14.20;99.90;;;;;;5085890;28;19920;-75
2022/06/23 03:17:32;;;;;;;;;;;14.10;99.90;;;;;;5095128;28;19912;-75
2022/06/23 03:20:05;;;;;;;;;;;14.20;99.90;;;;;;5082845;28;19962;-75
2022/06/23 03:22:31;;;;;;;;;;;14.10;99.90;;;;;;5079066;28;19962;-75
2022/06/23 03:25:03;;;;;;;;;;;14.00;99.90;;;;;;5081300;28;20220;-75
2022/06/23 03:27:32;;;;;;;;;;;14.00;99.90;;;;;;5087298;28;19916;-75
2022/06/23 03:30:01;;;;;;;;;;;14.10;99.90;;;;;;5077159;28;19912;-75
2022/06/23 03:32:30;;;;;;;;;;;14.10;99.90;;;;;;5079530;28;19920;-74
2022/06/23 03:35:05;;;;;;;;;;;14.00;99.90;;;;;;5081486;28;19927;-74
2022/06/23 03:37:30;;;;;;;;;;;13.90;99.90;;;;;;5091832;28;19952;-74
2022/06/23 03:42:52;;;;;;;;;;;13.90;99.90;;;;;;5074771;28;19965;-74
2022/06/23 03:45:32;;;;;;;;;;;13.90;99.90;;;;;;5068453;28;20282;-74
2022/06/23 03:47:57;;;;;;;;;;;13.90;99.90;;;;;;5084590;28;19912;-74
2022/06/23 03:50:49;;;;;;;;;;;13.90;99.90;;;;;;5083255;28;19970;-75
2022/06/23 03:53:18;;;;;;;;;;;14.10;99.90;;;;;;5012513;28;19925;-74
2022/06/23 03:55:49;;;;;;;;;;;14.20;99.90;;;;;;5003643;28;20476;-75
2022/06/23 03:58:18;;;;;;;;;;;14.20;99.90;;;;;;5008822;28;19921;-75
2022/06/23 04:01:03;;;;;;;;;;;14.20;99.90;;;;;;5002979;28;19918;-74
2022/06/23 04:03:32;;;;;;;;;;;14.40;99.90;;;;;;4997223;28;19917;-74
2022/06/23 04:06:01;;;;;;;;;;;14.40;99.90;;;;;;5008405;28;19914;-74
2022/06/23 04:08:30;;;;;;;;;;;14.50;99.90;;;;;;5006718;28;19914;-74
2022/06/23 04:10:58;;;;;;;;;;;14.70;99.90;;;;;;5013787;28;19920;-74
2022/06/23 04:13:24;;;;;;;;;;;14.80;99.90;;;;;;4995140;28;19929;-74
2022/06/23 04:15:52;;;;;;;;;;;14.90;99.90;;;;;;5006244;28;19925;-74
2022/06/23 04:18:28;;;;;;;;;;;14.80;99.90;;;;;;5007889;28;20052;-74
2022/06/23 04:21:01;;;;;;;;;;;14.90;99.90;;;;;;5008244;28;19921;-74
2022/06/23 04:23:30;;;;;;;;;;;15.00;99.90;;;;;;4996632;28;19914;-74
2022/06/23 04:26:22;;;;;;;;;;;15.00;99.90;;;;;;5004228;28;19917;-74
2022/06/23 04:28:50;;;;;;;;;;;15.00;99.90;;;;;;4990032;28;19972;-74
2022/06/23 04:31:36;;;;;;;;;;;15.10;99.90;;;;;;5048994;28;19920;-76
2022/06/23 04:34:02;;;;;;;;;;;15.20;99.90;;;;;;5046173;28;20007;-74
2022/06/23 04:36:30;;;;;;;;;;;15.30;99.90;;;;;;5045188;28;20304;-75
2022/06/23 04:39:07;;;;;;;;;;;15.40;99.90;;;;;;5044850;28;19913;-74
2022/06/23 04:41:48;;;;;;;;;;;15.40;99.90;;;;;;5049112;28;19953;-75
2022/06/23 04:44:20;;;;;;;;;;;15.50;99.90;;;;;;5045440;28;19925;-75
2022/06/23 04:46:48;;;;;;;;;;;15.60;99.90;;;;;;5041300;28;19959;-75
2022/06/23 04:49:25;;;;;;;;;;;15.70;99.90;;;;;;5058600;28;19912;-74
2022/06/23 04:51:57;;;;;;;;;;;15.80;99.90;;;;;;5059978;28;19979;-74
2022/06/23 04:54:25;;;;;;;;;;;15.90;99.90;;;;;;5053509;28;19924;-74
2022/06/23 04:56:54;;;;;;;;;;;15.90;99.90;;;;;;5061135;28;19940;-74
2022/06/23 04:59:35;;;;;;;;;;;15.90;99.90;;;;;;5057876;28;19920;-73
2022/06/23 05:02:15;;;;;;;;;;;15.90;99.90;;;;;;5059344;28;20004;-74
2022/06/23 05:04:42;;;;;;;;;;;16.00;99.90;;;;;;5053037;28;19927;-74
2022/06/23 05:07:37;;;;;;;;;;;16.10;99.90;;;;;;5057167;28;19917;-74
2022/06/23 05:10:06;;;;;;;;;;;16.20;99.90;;;;;;5046232;28;19913;-74
2022/06/23 05:12:41;;;;;;;;;;;16.20;99.90;;;;;;5062274;28;19928;-74
2022/06/23 05:15:16;;;;;;;;;;;16.30;99.90;;;;;;5086042;28;19920;-75
2022/06/23 05:17:49;;;;;;;;;;;16.40;99.90;;;;;;5083441;28;20315;-74
2022/06/23 05:20:19;;;;;;;;;;;16.40;99.90;;;;;;5079109;28;19975;-74
2022/06/23 05:22:46;;;;;;;;;;;16.50;99.90;;;;;;5073551;28;19923;-75
2022/06/23 05:25:17;;;;;;;;;;;16.70;99.90;;;;;;5090158;28;20307;-74
2022/06/23 05:27:45;;;;;;;;;;;16.80;99.90;;;;;;5088559;28;19916;-75
2022/06/23 05:30:19;;;;;;;;;;;16.90;99.90;;;;;;5089029;28;19924;-74
2022/06/23 05:32:48;;;;;;;;;;;17.00;99.90;;;;;;5087861;28;19912;-75
2022/06/23 05:35:20;;;;;;;;;;;16.90;99.90;;;;;;5086860;28;19951;-75
2022/06/23 05:38:06;;;;;;;;;;;16.90;99.90;;;;;;5091219;28;20192;-74
2022/06/23 05:40:31;;;;;;;;;;;17.00;99.90;;;;;;5046725;28;19939;-74
2022/06/23 05:43:00;;;;;;;;;;;17.00;99.90;;;;;;5088261;28;20319;-74
2022/06/23 05:45:28;;;;;;;;;;;17.00;99.90;;;;;;5087404;28;19978;-74
2022/06/23 05:47:54;;;;;;;;;;;17.10;99.90;;;;;;5059650;28;19924;-75
2022/06/23 05:50:23;;;;;;;;;;;17.10;99.90;;;;;;5080156;28;19912;-74
2022/06/23 05:52:52;;;;;;;;;;;17.10;99.90;;;;;;5089227;28;20015;-74
2022/06/23 05:55:37;;;;;;;;;;;17.20;99.90;;;;;;5071905;28;20231;-75
2022/06/23 05:58:11;;;;;;;;;;;17.30;99.90;;;;;;5090624;28;19920;-75
2022/06/23 06:00:45;;;;;;;;;;;17.40;99.90;;;;;;5090757;28;19919;-75
2022/06/23 06:03:16;;;;;;;;;;;17.40;99.90;;;;;;5072631;28;19949;-73
2022/06/23 06:05:44;;;;;;;;;;;17.50;99.90;;;;;;5089146;28;20331;-74
2022/06/23 06:08:22;;;;;;;;;;;17.60;99.90;;;;;;5087476;28;19965;-74
2022/06/23 06:10:49;;;;;;;;;;;17.60;99.90;;;;;;5080175;28;20297;-75
2022/06/23 06:13:19;;;;;;;;;;;17.60;99.90;;;;;;5079168;28;20022;-75
2022/06/23 06:15:48;;;;;;;;;;;17.70;99.90;;;;;;5069410;28;19923;-75
2022/06/23 06:18:20;;;;;;;;;;;17.80;99.90;;;;;;5079726;28;20261;-75
2022/06/23 06:20:46;;;;;;;;;;;17.90;99.90;;;;;;5060304;28;20035;-75
2022/06/23 06:23:15;;;;;;;;;;;18.00;99.90;;;;;;5080476;28;20005;-74
2022/06/23 06:25:44;;;;;;;;;;;18.00;99.90;;;;;;5082721;28;19912;-75
2022/06/23 06:28:15;;;;;;;;;;;18.00;99.90;;;;;;5085809;28;20578;-76
2022/06/23 06:30:43;;;;;;;;;;;18.10;99.90;;;;;;5078096;28;19920;-74
2022/06/23 06:33:20;;;;;;;;;;;18.20;99.90;;;;;;5087157;28;20010;-79
2022/06/23 06:35:53;;;;;;;;;;;18.30;99.90;;;;;;5074596;28;20011;-75
2022/06/23 06:38:20;;;;;;;;;;;18.40;99.90;;;;;;5081503;28;19951;-75
2022/06/23 06:40:48;;;;;;;;;;;18.50;99.90;;;;;;5078942;28;20307;-74
2022/06/23 06:43:19;;;;;;;;;;;18.50;99.90;;;;;;5079235;28;19920;-75
2022/06/23 06:45:45;;;;;;;;;;;18.60;99.90;;;;;;5076926;28;20265;-76
2022/06/23 06:48:21;;;;;;;;;;;18.70;99.90;;;;;;5060145;28;20023;-76
2022/06/23 06:50:49;;;;;;;;;;;18.80;99.90;;;;;;5074494;28;19916;-76
2022/06/23 06:53:28;;;;;;;;;;;18.90;99.90;;;;;;5080398;28;20011;-76
2022/06/23 06:56:03;;;;;;;;;;;18.90;99.90;;;;;;5076142;28;19927;-74
2022/06/23 06:58:43;;;;;;;;;;;19.00;99.90;;;;;;5079588;28;19912;-75
2022/06/23 07:01:09;;;;;;;;;;;19.00;99.90;;;;;;5084973;28;19924;-76
2022/06/23 07:03:35;;;;;;;;;;;19.20;99.90;;;;;;5078529;28;20310;-77
2022/06/23 07:06:07;;;;;;;;;;;19.20;99.90;;;;;;5081470;28;20331;-75
2022/06/23 07:08:40;;;;;;;;;;;19.30;99.90;;;;;;5087587;28;19912;-77
2022/06/23 07:11:11;;;;;;;;;;;19.40;99.90;;;;;;5082201;28;20218;-76
2022/06/23 07:13:52;;;;;;;;;;;19.50;99.90;;;;;;5075128;28;19920;-75
2022/06/23 07:16:31;;;;;;;;;;;19.60;99.90;;;;;;5074136;28;19931;-75
2022/06/23 07:19:01;;;;;;;;;;;19.70;99.90;;;;;;5076980;28;20335;-75
2022/06/23 07:21:31;;;;;;;;;;;19.80;99.90;;;;;;5076420;28;19912;-74
2022/06/23 07:24:03;;;;;;;;;;;19.80;99.90;;;;;;5061516;28;19951;-76
2022/06/23 07:26:44;;;;;;;;;;;19.80;99.90;;;;;;5065776;28;20200;-75
2022/06/23 07:29:19;;;;;;;;;;;19.90;99.90;;;;;;5089034;28;19912;-75
2022/06/23 07:32:02;;;;;;;;;;;20.10;99.90;;;;;;5082633;28;20307;-75
2022/06/23 07:34:30;;;;;;;;;;;20.20;99.90;;;;;;5086256;28;20310;-75
2022/06/23 07:36:57;;;;;;;;;;;20.30;99.90;;;;;;5077890;28;19916;-75
2022/06/23 07:39:27;;;;;;;;;;;20.30;99.90;;;;;;5077568;28;20007;-74
2022/06/23 07:41:57;;;;;;;;;;;20.40;99.90;;;;;;5062668;28;19958;-74
2022/06/23 07:44:35;;;;;;;;;;;20.50;99.90;;;;;;5088052;28;19916;-75
2022/06/23 07:47:01;;;;;;;;;;;20.60;99.90;;;;;;5069799;28;20315;-74
2022/06/23 07:49:27;;;;;;;;;;;20.70;99.90;;;;;;5066866;28;19912;-74
2022/06/23 07:51:54;;;;;;;;;;;20.80;99.90;;;;;;5064694;28;20318;-74
2022/06/23 07:54:20;;;;;;;;;;;21.00;99.90;;;;;;5076813;28;19913;-74
2022/06/23 07:56:46;;;;;;;;;;;21.20;99.90;;;;;;5081382;28;19939;-73
2022/06/23 07:59:13;;;;;;;;;;;21.40;99.90;;;;;;5078224;28;20287;-74
2022/06/23 08:01:43;;;;;;;;;;;21.50;99.90;;;;;;5085327;28;20057;-75
2022/06/23 08:04:23;;;;;;;;;;;21.80;99.90;;;;;;5092397;28;20007;-74
2022/06/23 08:06:49;;;;;;;;;;;22.00;99.90;;;;;;5082492;28;19927;-75
2022/06/23 08:09:24;;;;;;;;;;;22.30;99.90;;;;;;5079354;28;19908;-78
2022/06/23 08:14:35;;;;;;;;;;;22.90;99.90;;;;;;5076374;28;20277;-74
2022/06/23 08:17:08;;;;;;;;;;;23.10;99.90;;;;;;5076077;28;20194;-73
2022/06/23 08:19:37;;;;;;;;;;;23.40;99.90;;;;;;5085115;28;19946;-75
2022/06/23 08:22:05;;;;;;;;;;;23.70;99.90;;;;;;5082600;28;19912;-77
2022/06/23 08:24:32;;;;;;;;;;;24.00;99.90;;;;;;5080242;28;19947;-74
2022/06/23 08:27:28;;;;;;;;;;;24.40;99.90;;;;;;5065873;28;19912;-73
2022/06/23 08:29:56;;;;;;;;;;;24.60;99.90;;;;;;5075467;28;20027;-74
2022/06/23 08:32:23;;;;;;;;;;;24.90;99.90;;;;;;5077148;28;20275;-74
2022/06/23 08:34:52;;;;;;;;;;;25.20;99.90;;;;;;5061110;28;19916;-75
2022/06/23 08:37:20;;;;;;;;;;;25.30;99.90;;;;;;5078629;28;19963;-74
2022/06/23 08:39:51;;;;;;;;;;;25.80;99.60;;;;;;5077668;28;19913;-77
2022/06/23 08:42:24;;;;;;;;;;;25.90;99.50;;;;;;5081086;28;20253;-74
2022/06/23 08:44:57;;;;;;;;;;;26.10;97.70;;;;;;5077618;28;19916;-74
2022/06/23 08:47:43;;;;;;;;;;;26.20;98.50;;;;;;5080571;28;19912;-74
2022/06/23 08:50:16;;;;;;;;;;;26.60;99.00;;;;;;5092174;28;19959;-74
2022/06/23 08:52:56;;;;;;;;;;;26.90;98.10;;;;;;5077843;28;20013;-74
2022/06/23 08:55:38;;;;;;;;;;;27.20;99.20;;;;;;5076813;28;19917;-77
2022/06/23 08:58:11;;;;;;;;;;;27.50;96.90;;;;;;5077496;28;20315;-74
2022/06/23 09:00:39;;;;;;;;;;;27.60;97.10;;;;;;5080594;28;19920;-75
2022/06/23 09:03:23;;;;;;;;;;;27.60;97.20;;;;;;5074263;28;20023;-75
2022/06/23 09:05:53;;;;;;;;;;;27.70;96.60;;;;;;5076106;28;19916;-74
2022/06/23 09:08:24;;;;;;;;;;;27.60;96.20;;;;;;5072498;28;20682;-75
2022/06/23 09:10:55;;;;;;;;;;;27.90;96.30;;;;;;5075401;28;19912;-81
2022/06/23 09:13:45;;;;;;;;;;;27.90;95.10;;;;;;5075304;28;19916;-83
2022/06/23 09:16:16;;;;;;;;;;;27.80;95.40;;;;;;5080411;28;19920;-76
2022/06/23 09:18:42;;;;;;;;;;;27.90;95.50;;;;;;5084730;28;20003;-74
2022/06/23 09:21:10;;;;;;;;;;;28.00;96.20;;;;;;5087601;28;19995;-75
2022/06/23 09:23:44;;;;;;;;;;;28.40;95.00;;;;;;5071570;28;19912;-74
2022/06/23 09:26:28;;;;;;;;;;;28.50;95.90;;;;;;5088817;28;19919;-74
2022/06/23 09:28:59;;;;;;;;;;;28.90;96.30;;;;;;5091075;28;19920;-75
2022/06/23 09:31:45;;;;;;;;;;;29.30;96.30;;;;;;5071981;28;19920;-74
2022/06/23 09:34:29;;;;;;;;;;;29.50;95.80;;;;;;5046573;28;19943;-78
2022/06/23 09:36:57;;;;;;;;;;;29.40;95.40;;;;;;5087240;28;19923;-78
2022/06/23 09:40:01;;;;;;;;;;;29.60;95.50;;;;;;5075024;28;19920;-79
2022/06/23 09:42:43;;;;;;;;;;;29.70;95.20;;;;;;5048163;28;20308;-82
2022/06/23 09:45:28;;;;;;;;;;;29.80;94.40;;;;;;5028622;28;20028;-79
2022/06/23 09:47:59;;;;;;;;;;;29.80;93.50;;;;;;5046644;28;19925;-77
2022/06/23 09:50:43;;;;;;;;;;;29.60;94.30;;;;;;5029306;28;19952;-78
2022/06/23 09:53:08;;;;;;;;;;;29.60;94.80;;;;;;5042618;28;20315;-78
2022/06/23 09:55:53;;;;;;;;;;;29.50;94.10;;;;;;5051389;28;19967;-77
2022/06/23 09:58:24;;;;;;;;;;;29.80;94.10;;;;;;5045914;28;20011;-75
2022/06/23 10:01:02;;;;;;;;;;;30.00;93.50;;;;;;5043796;28;19913;-77
2022/06/23 10:03:41;;;;;;;;;;;30.20;94.10;;;;;;5024715;28;20365;-81
2022/06/23 10:06:09;;;;;;;;;;;30.10;94.00;;;;;;5035354;28;20483;-79
2022/06/23 10:08:39;;;;;;;;;;;30.10;93.70;;;;;;5047598;28;19921;-78
2022/06/23 10:11:10;;;;;;;;;;;29.90;93.80;;;;;;5028848;28;19963;-80
2022/06/23 10:13:35;;;;;;;;;;;30.30;92.80;;;;;;5044098;28;20219;-79
2022/06/23 10:16:16;;;;;;;;;;;30.40;94.00;;;;;;5074740;28;19925;-78
2022/06/23 10:18:53;;;;;;;;;;;30.50;93.20;;;;;;5076118;28;20003;-79
2022/06/23 10:21:30;;;;;;;;;;;30.60;92.90;;;;;;5075099;28;19916;-81
2022/06/23 10:24:01;;;;;;;;;;;30.60;93.90;;;;;;5080967;28;19951;-76
2022/06/23 10:26:34;;;;;;;;;;;31.00;93.20;;;;;;5075531;28;20356;-80
2022/06/23 10:29:00;;;;;;;;;;;30.90;92.50;;;;;;5069279;28;19916;-81
2022/06/23 10:31:32;;;;;;;;;;;30.80;92.70;;;;;;5086034;28;19915;-77
2022/06/23 10:34:17;;;;;;;;;;;31.00;93.70;;;;;;5080290;28;19912;-84
2022/06/23 10:36:42;;;;;;;;;;;31.40;92.10;;;;;;5068613;28;19951;-81
2022/06/23 10:39:18;;;;;;;;;;;31.50;94.30;;;;;;5074296;28;20002;-77
2022/06/23 10:41:50;;;;;;;;;;;31.80;93.00;;;;;;5074247;28;20293;-76
2022/06/23 10:44:21;;;;;;;;;;;31.80;92.30;;;;;;5074151;28;19919;-78
2022/06/23 10:46:49;;;;;;;;;;;32.20;92.60;;;;;;5083532;28;20375;-77
2022/06/23 10:49:33;;;;;;;;;;;32.70;92.70;;;;;;5076077;28;20007;-79
2022/06/23 10:52:14;;;;;;;;;;;32.90;91.20;;;;;;5084446;28;19912;-76
2022/06/23 10:54:46;;;;;;;;;;;32.90;92.70;;;;;;5063914;28;19913;-77
2022/06/23 10:57:17;;;;;;;;;;;33.00;92.40;;;;;;5078526;28;20291;-79
2022/06/23 11:00:03;;;;;;;;;;;33.10;91.60;;;;;;5080921;28;20210;-77
2022/06/23 11:02:34;;;;;;;;;;;33.50;91.60;;;;;;5091900;28;20320;-80
2022/06/23 11:05:24;;;;;;;;;;;33.30;90.60;;;;;;5080775;28;19909;-78
2022/06/23 11:07:52;;;;;;;;;;;33.10;91.30;;;;;;5068706;28;20277;-80
2022/06/23 11:10:30;;;;;;;;;;;33.10;91.60;;;;;;5067382;28;19947;-77
2022/06/23 11:13:01;;;;;;;;;;;32.80;91.90;;;;;;5088726;28;19912;-81
2022/06/23 11:15:39;;;;;;;;;;;33.60;91.10;;;;;;5085666;28;19959;-81
2022/06/23 11:18:16;;;;;;;;;;;33.90;91.30;;;;;;5088196;28;20014;-79
2022/06/23 11:21:10;;;;;;;;;;;34.10;92.00;;;;;;5085603;28;20219;-78
2022/06/23 11:23:39;;;;;;;;;;;34.20;90.70;;;;;;5087177;28;20267;-77
2022/06/23 11:26:07;;;;;;;;;;;33.80;91.60;;;;;;5084234;28;20006;-76
2022/06/23 11:28:42;;;;;;;;;;;33.80;91.50;;;;;;5063916;28;19963;-77
2022/06/23 11:31:11;;;;;;;;;;;34.00;92.10;;;;;;5078761;28;20275;-76
2022/06/23 11:33:43;;;;;;;;;;;34.40;92.70;;;;;;5087888;28;20350;-75
2022/06/23 11:36:10;;;;;;;;;;;34.40;91.70;;;;;;5097251;28;19916;-76
2022/06/23 11:38:44;;;;;;;;;;;34.20;91.80;;;;;;5084152;28;19912;-78
2022/06/23 11:41:18;;;;;;;;;;;34.50;90.30;;;;;;5078199;28;19908;-75
2022/06/23 11:43:47;;;;;;;;;;;34.40;91.10;;;;;;5083159;28;20326;-77
2022/06/23 11:46:48;;;;;;;;;;;34.70;90.20;;;;;;5078302;28;19961;-76
2022/06/23 11:49:23;;;;;;;;;;;34.60;91.30;;;;;;5053805;28;19917;-75
2022/06/23 11:52:00;;;;;;;;;;;34.70;91.00;;;;;;5085026;28;19962;-77
2022/06/23 11:54:40;;;;;;;;;;;34.90;90.20;;;;;;5076961;28;19909;-77
2022/06/23 11:57:24;;;;;;;;;;;34.80;91.50;;;;;;5091827;28;19916;-76
2022/06/23 11:59:55;;;;;;;;;;;35.00;90.40;;;;;;5084414;28;20307;-78
2022/06/23 12:02:21;;;;;;;;;;;35.10;90.60;;;;;;5077404;28;20330;-77
2022/06/23 12:04:53;;;;;;;;;;;35.10;90.50;;;;;;5085862;28;19912;-79
2022/06/23 12:07:19;;;;;;;;;;;35.10;90.10;;;;;;5079444;28;19940;-78
2022/06/23 12:09:50;;;;;;;;;;;34.90;91.10;;;;;;5079090;28;19974;-77
2022/06/23 12:12:16;;;;;;;;;;;34.90;90.10;;;;;;5086796;28;20464;-75
2022/06/23 12:14:42;;;;;;;;;;;34.50;91.30;;;;;;5081844;28;19950;-74
2022/06/23 12:17:21;;;;;;;;;;;34.40;90.50;;;;;;5096479;28;19920;-74
2022/06/23 12:19:57;;;;;;;;;;;34.40;90.80;;;;;;5071770;28;20387;-77
2022/06/23 12:22:46;;;;;;;;;;;34.60;90.20;;;;;;5078053;28;19961;-75
2022/06/23 12:25:17;;;;;;;;;;;34.60;90.40;;;;;;5084623;28;20366;-76
2022/06/23 12:28:03;;;;;;;;;;;34.60;89.90;;;;;;5096026;28;19920;-74
2022/06/23 12:30:31;;;;;;;;;;;34.20;90.00;;;;;;5076623;28;19966;-74
2022/06/23 12:33:03;;;;;;;;;;;34.00;91.00;;;;;;5067627;28;20250;-75
2022/06/23 12:36:01;;;;;;;;;;;34.00;90.60;;;;;;5094279;28;19923;-76
2022/06/23 12:38:35;;;;;;;;;;;34.20;90.00;;;;;;5029560;28;20375;-74
2022/06/23 12:41:07;;;;;;;;;;;33.90;90.60;;;;;;5001109;28;19917;-75
2022/06/23 12:43:36;;;;;;;;;;;34.20;90.10;;;;;;5032962;28;19917;-77
2022/06/23 12:46:02;;;;;;;;;;;34.20;91.00;;;;;;5025019;28;19921;-76
2022/06/23 12:48:40;;;;;;;;;;;34.30;90.30;;;;;;5033671;28;19936;-76
2022/06/23 12:51:29;;;;;;;;;;;34.20;90.10;;;;;;5033585;28;19940;-76
2022/06/23 12:54:04;;;;;;;;;;;34.10;90.60;;;;;;4998933;28;19913;-81
2022/06/23 12:56:40;;;;;;;;;;;34.20;90.60;;;;;;5016779;28;20394;-79
2022/06/23 12:59:15;;;;;;;;;;;33.60;90.20;;;;;;5033275;28;19922;-80
2022/06/23 13:01:57;;;;;;;;;;;32.60;90.90;;;;;;5029734;28;19917;-77
2022/06/23 13:04:31;;;;;;;;;;;32.70;91.10;;;;;;5032828;28;19913;-76
2022/06/23 13:07:15;;;;;;;;;;;32.90;90.90;;;;;;5033248;28;20323;-75
2022/06/23 13:09:59;;;;;;;;;;;32.40;90.70;;;;;;5032693;28;19913;-81
2022/06/23 13:12:36;;;;;;;;;;;31.90;91.20;;;;;;5020427;28;19913;-77
2022/06/23 13:15:02;;;;;;;;;;;32.20;91.30;;;;;;5077224;28;20227;-75
2022/06/23 13:17:32;;;;;;;;;;;32.50;92.40;;;;;;5076989;28;19912;-75
2022/06/23 13:20:04;;;;;;;;;;;32.90;91.60;;;;;;5088211;28;19916;-75
2022/06/23 13:22:30;;;;;;;;;;;33.30;91.30;;;;;;5083858;28;20007;-80
2022/06/23 13:24:56;;;;;;;;;;;33.20;90.70;;;;;;5073003;28;19912;-76
2022/06/23 13:27:25;;;;;;;;;;;33.30;91.90;;;;;;5087169;28;19920;-74
2022/06/23 13:29:54;;;;;;;;;;;33.60;91.60;;;;;;5083141;28;19912;-78
2022/06/23 13:32:25;;;;;;;;;;;33.60;91.90;;;;;;5091740;28;19916;-78
2022/06/23 13:34:51;;;;;;;;;;;33.80;88.30;;;;;;5069727;28;19912;-77
2022/06/23 13:37:21;;;;;;;;;;;33.60;91.00;;;;;;5077359;28;20222;-78
2022/06/23 13:39:53;;;;;;;;;;;33.50;91.20;;;;;;5062554;28;19912;-81
2022/06/23 13:42:21;;;;;;;;;;;33.80;90.60;;;;;;5093437;28;19932;-76
2022/06/23 13:44:52;;;;;;;;;;;34.10;90.60;;;;;;5088518;28;19913;-80
2022/06/23 13:47:44;;;;;;;;;;;34.20;90.00;;;;;;5082963;28;19912;-74
2022/06/23 13:50:24;;;;;;;;;;;34.30;90.30;;;;;;5085590;28;20001;-77
2022/06/23 13:52:59;;;;;;;;;;;34.30;88.00;;;;;;5061650;28;19916;-75
2022/06/23 13:55:29;;;;;;;;;;;34.00;88.70;;;;;;5067818;28;20015;-77
2022/06/23 13:57:58;;;;;;;;;;;34.00;88.40;;;;;;5088286;28;19920;-75
2022/06/23 14:00:30;;;;;;;;;;;34.00;89.70;;;;;;5085509;28;20439;-75
2022/06/23 14:03:07;;;;;;;;;;;34.20;89.40;;;;;;5073623;28;19945;-75
2022/06/23 14:05:38;;;;;;;;;;;34.20;88.60;;;;;;5076623;28;19913;-79
2022/06/23 14:08:07;;;;;;;;;;;34.10;88.60;;;;;;5077361;28;19969;-76
2022/06/23 14:10:36;;;;;;;;;;;34.00;90.40;;;;;;5080917;28;19919;-77
2022/06/23 14:13:21;;;;;;;;;;;34.20;90.00;;;;;;5071814;28;20295;-76
2022/06/23 14:15:47;;;;;;;;;;;34.30;89.40;;;;;;5082815;28;19920;-78
2022/06/23 14:18:18;;;;;;;;;;;34.40;90.30;;;;;;5087035;28;19912;-77
2022/06/23 14:20:51;;;;;;;;;;;34.60;86.90;;;;;;5082762;28;19924;-76
2022/06/23 14:23:16;;;;;;;;;;;34.60;86.40;;;;;;5083666;28;19912;-76
2022/06/23 14:25:56;;;;;;;;;;;34.40;90.60;;;;;;5076150;28;19912;-75
2022/06/23 14:28:26;;;;;;;;;;;34.00;89.70;;;;;;5082406;28;20261;-80
2022/06/23 14:30:51;;;;;;;;;;;34.20;87.30;;;;;;5065700;28;20253;-75
2022/06/23 14:33:23;;;;;;;;;;;34.40;87.90;;;;;;5086252;28;19916;-77
2022/06/23 14:36:00;;;;;;;;;;;34.40;87.20;;;;;;5081681;28;19970;-75
2022/06/23 14:38:46;;;;;;;;;;;34.20;88.20;;;;;;5084727;28;19917;-78
2022/06/23 14:41:24;;;;;;;;;;;34.20;88.00;;;;;;5063436;28;19916;-78
2022/06/23 14:44:09;;;;;;;;;;;34.20;87.50;;;;;;5081285;28;19943;-76
2022/06/23 14:46:41;;;;;;;;;;;34.20;88.80;;;;;;5089666;28;20007;-77
2022/06/23 14:49:16;;;;;;;;;;;34.10;88.80;;;;;;5087052;28;19912;-78
2022/06/23 14:51:43;;;;;;;;;;;34.20;88.40;;;;;;5077078;28;20330;-77
2022/06/23 14:54:18;;;;;;;;;;;34.20;88.00;;;;;;5078302;28;19952;-78
2022/06/23 14:56:46;;;;;;;;;;;34.10;87.80;;;;;;5078092;28;19924;-78